Time;durP1;ratioP1;P1;durP2;ratioP2;P2;SDS_P1;SDS_P2;PMS_P1;PMS_P2;Temp;Humidity;BMP_temperature;BMP_pressure;BME280_temperature;BME280_humidity;BME280_pressure;Samples;Min_cycle;Max_cycle;Signal;HPM_P1;HPM_P2
2023/07/11 00:01:56;;;;;;;4.97;4.47;;;26.40;91.80;;;;;;6251191;27;88339;-69
2023/07/11 00:04:59;;;;;;;5.30;4.80;;;26.50;92.10;;;;;;6253139;27;89420;-69
2023/07/11 00:08:01;;;;;;;5.05;4.63;;;26.50;91.90;;;;;;6252773;27;89156;-69
2023/07/11 00:11:04;;;;;;;6.45;5.22;;;26.40;91.80;;;;;;6247071;27;90059;-69
2023/07/11 00:14:06;;;;;;;5.68;5.15;;;26.50;91.90;;;;;;6243463;27;89058;-69
2023/07/11 00:17:08;;;;;;;5.57;4.97;;;26.50;91.80;;;;;;6254725;27;89158;-69
2023/07/11 00:20:13;;;;;;;6.20;5.07;;;26.40;91.70;;;;;;6255800;27;89559;-69
2023/07/11 00:23:15;;;;;;;5.70;5.20;;;26.50;91.90;;;;;;6255027;27;89338;-69
2023/07/11 00:26:19;;;;;;;5.78;5.18;;;26.40;91.90;;;;;;6240566;27;89109;-70
2023/07/11 00:29:22;;;;;;;6.63;5.65;;;26.50;91.80;;;;;;6248152;27;89470;-69
2023/07/11 00:32:24;;;;;;;5.45;4.93;;;26.50;91.90;;;;;;6250039;27;88399;-69
2023/07/11 00:35:26;;;;;;;6.60;5.40;;;26.40;91.80;;;;;;6251519;27;89099;-69
2023/07/11 00:38:30;;;;;;;5.90;5.30;;;26.50;91.90;;;;;;6252997;27;89015;-69
2023/07/11 00:41:34;;;;;;;5.32;4.82;;;26.50;91.80;;;;;;6252542;27;91238;-69
2023/07/11 00:44:49;;;;;;;5.85;5.05;;;26.40;91.80;;;;;;6247427;27;88968;-69
2023/07/11 00:47:51;;;;;;;6.05;5.45;;;26.40;91.90;;;;;;6230689;28;88028;-69
2023/07/11 00:50:55;;;;;;;5.63;5.10;;;26.40;92.00;;;;;;6245999;27;89063;-69
2023/07/11 00:53:58;;;;;;;5.93;5.40;;;26.40;92.00;;;;;;6251245;27;89086;-69
2023/07/11 00:57:05;;;;;;;5.85;5.15;;;26.40;92.00;;;;;;6251486;28;89407;-69
2023/07/11 01:00:09;;;;;;;6.93;5.57;;;26.50;91.90;;;;;;6242941;27;87983;-69
2023/07/11 01:03:11;;;;;;;6.72;5.25;;;26.40;91.80;;;;;;6248494;28;88432;-69
2023/07/11 01:06:15;;;;;;;5.90;5.40;;;26.40;91.60;;;;;;6238891;27;89033;-69
2023/07/11 01:09:17;;;;;;;7.38;5.80;;;26.50;91.70;;;;;;6255008;27;89214;-69
2023/07/11 01:12:20;;;;;;;7.93;5.60;;;26.40;91.70;;;;;;6252121;27;90310;-69
2023/07/11 01:15:22;;;;;;;5.40;4.90;;;26.40;91.70;;;;;;6248997;27;89094;-69
2023/07/11 01:18:24;;;;;;;5.78;5.28;;;26.40;91.90;;;;;;6253212;27;89450;-69
2023/07/11 01:21:28;;;;;;;5.85;5.32;;;26.40;91.70;;;;;;6241542;27;89151;-70
2023/07/11 01:24:30;;;;;;;6.00;5.40;;;26.40;91.70;;;;;;6251275;27;89039;-69
2023/07/11 01:27:32;;;;;;;5.85;5.28;;;26.40;91.70;;;;;;6247633;27;89445;-69
2023/07/11 01:30:35;;;;;;;6.50;5.90;;;26.40;91.70;;;;;;6256283;27;89523;-69
2023/07/11 01:33:38;;;;;;;5.93;5.18;;;26.40;91.80;;;;;;6251756;27;88042;-69
2023/07/11 01:36:41;;;;;;;5.80;5.30;;;26.40;92.00;;;;;;6249508;27;89113;-69
2023/07/11 01:39:43;;;;;;;5.75;5.10;;;26.40;91.90;;;;;;6248920;27;89103;-69
2023/07/11 01:42:45;;;;;;;7.55;5.68;;;26.40;91.90;;;;;;6252322;27;88987;-69
2023/07/11 01:45:47;;;;;;;7.05;5.18;;;26.40;91.80;;;;;;6248065;27;89067;-69
2023/07/11 01:48:49;;;;;;;6.20;5.50;;;26.40;91.90;;;;;;6258016;27;89075;-69
2023/07/11 01:52:03;;;;;;;5.88;5.28;;;26.40;92.00;;;;;;6245475;27;88295;-69
2023/07/11 01:55:06;;;;;;;6.43;5.57;;;26.40;92.10;;;;;;6249298;27;89182;-69
2023/07/11 01:58:08;;;;;;;8.23;5.20;;;26.40;92.00;;;;;;6254370;27;89095;-69
2023/07/11 02:01:10;;;;;;;5.35;4.93;;;26.40;92.00;;;;;;6252645;27;89558;-69
2023/07/11 02:04:12;;;;;;;6.00;5.40;;;26.40;92.00;;;;;;6258013;27;88294;-69
2023/07/11 02:07:15;;;;;;;5.72;5.13;;;26.40;92.00;;;;;;6257587;27;88288;-69
2023/07/11 02:10:17;;;;;;;6.25;5.40;;;26.40;92.00;;;;;;6248430;28;89166;-70
2023/07/11 02:13:19;;;;;;;6.35;5.35;;;26.40;91.90;;;;;;6255545;27;88924;-70
2023/07/11 02:16:21;;;;;;;6.35;5.18;;;26.40;91.80;;;;;;6248547;27;89593;-69
2023/07/11 02:19:25;;;;;;;6.43;5.70;;;26.40;91.90;;;;;;6251472;27;89458;-69
2023/07/11 02:22:29;;;;;;;6.70;5.40;;;26.40;91.80;;;;;;6258536;27;89068;-69
2023/07/11 02:25:31;;;;;;;6.18;5.43;;;26.40;92.00;;;;;;6254168;27;88221;-69
2023/07/11 02:28:33;;;;;;;6.00;5.45;;;26.40;91.90;;;;;;6256309;27;87088;-69
2023/07/11 02:31:36;;;;;;;6.25;5.60;;;26.40;92.00;;;;;;6247407;27;89108;-69
2023/07/11 02:34:41;;;;;;;6.20;5.60;;;26.40;92.30;;;;;;6255259;27;88350;-70
2023/07/11 02:37:44;;;;;;;7.32;5.63;;;26.30;92.00;;;;;;6256070;27;89491;-69
2023/07/11 02:40:46;;;;;;;5.75;5.22;;;26.40;92.10;;;;;;6254201;27;89072;-69
2023/07/11 02:43:49;;;;;;;6.43;5.35;;;26.40;92.10;;;;;;6252006;27;90369;-70
2023/07/11 02:46:51;;;;;;;5.95;5.45;;;26.30;91.90;;;;;;6242932;27;89095;-70
2023/07/11 02:49:53;;;;;;;5.60;5.10;;;26.30;91.90;;;;;;6253098;27;89056;-69
2023/07/11 02:52:56;;;;;;;5.78;5.28;;;26.30;91.80;;;;;;6252753;27;89053;-69
2023/07/11 02:55:58;;;;;;;6.70;5.25;;;26.40;91.70;;;;;;6248631;27;89161;-69
2023/07/11 02:59:00;;;;;;;6.00;5.32;;;26.30;91.60;;;;;;6254496;27;89462;-69
2023/07/11 03:02:02;;;;;;;7.90;5.20;;;26.30;91.60;;;;;;6253682;27;89077;-69
2023/07/11 03:05:06;;;;;;;6.22;5.10;;;26.30;91.60;;;;;;6252544;27;88554;-69
2023/07/11 03:08:09;;;;;;;5.68;5.10;;;26.30;91.60;;;;;;6250187;27;89166;-70
2023/07/11 03:11:11;;;;;;;6.22;5.53;;;26.30;91.70;;;;;;6248985;27;88880;-69
2023/07/11 03:14:13;;;;;;;5.80;5.30;;;26.30;91.60;;;;;;6241501;27;89802;-69
2023/07/11 03:17:15;;;;;;;7.13;6.07;;;26.30;91.50;;;;;;6237524;27;89030;-69
2023/07/11 03:20:17;;;;;;;6.25;5.65;;;26.30;91.60;;;;;;6256102;27;89368;-70
2023/07/11 03:23:21;;;;;;;6.15;5.55;;;26.30;91.70;;;;;;6253581;27;89141;-70
2023/07/11 03:26:23;;;;;;;6.60;5.93;;;26.30;91.80;;;;;;6250287;27;88538;-69
2023/07/11 03:29:25;;;;;;;7.15;5.90;;;26.30;91.80;;;;;;6256456;27;89046;-69
2023/07/11 03:32:27;;;;;;;6.95;5.85;;;26.30;91.80;;;;;;6247788;27;89116;-69
2023/07/11 03:35:29;;;;;;;6.03;5.43;;;26.30;91.70;;;;;;6250807;27;88359;-69
2023/07/11 03:38:33;;;;;;;7.47;5.85;;;26.30;91.60;;;;;;6247035;27;89113;-69
2023/07/11 03:41:36;;;;;;;6.03;5.40;;;26.30;91.40;;;;;;6255952;27;89569;-69
2023/07/11 03:44:39;;;;;;;5.85;5.30;;;26.30;91.40;;;;;;6253952;27;89996;-69
2023/07/11 03:47:41;;;;;;;6.43;5.90;;;26.30;91.40;;;;;;6242128;27;88993;-69
2023/07/11 03:50:43;;;;;;;6.70;6.00;;;26.30;91.40;;;;;;6254405;27;89078;-68
2023/07/11 03:53:47;;;;;;;6.90;5.68;;;26.30;91.40;;;;;;6254793;27;89231;-69
2023/07/11 03:56:49;;;;;;;6.10;5.50;;;26.30;91.40;;;;;;6242841;27;89105;-69
2023/07/11 03:59:51;;;;;;;6.35;5.75;;;26.30;91.50;;;;;;6252553;27;88284;-69
2023/07/11 04:02:53;;;;;;;6.72;6.03;;;26.30;91.40;;;;;;6245886;27;89265;-69
2023/07/11 04:05:56;;;;;;;7.57;6.38;;;26.30;91.40;;;;;;6243141;27;88419;-69
2023/07/11 04:08:59;;;;;;;7.05;6.13;;;26.30;91.50;;;;;;6243672;27;89392;-69
2023/07/11 04:12:01;;;;;;;6.78;6.07;;;26.30;91.40;;;;;;6240743;27;89022;-69
2023/07/11 04:15:04;;;;;;;6.47;5.93;;;26.20;91.20;;;;;;6240809;27;89968;-69
2023/07/11 04:18:06;;;;;;;6.60;5.90;;;26.20;91.20;;;;;;6249421;27;89563;-69
2023/07/11 04:21:08;;;;;;;7.22;6.15;;;26.20;91.30;;;;;;6253280;27;89489;-69
2023/07/11 04:24:11;;;;;;;7.65;6.15;;;26.30;91.30;;;;;;6253250;27;89527;-69
2023/07/11 04:27:13;;;;;;;6.10;5.50;;;26.20;91.30;;;;;;6244342;28;89112;-69
2023/07/11 04:30:15;;;;;;;6.63;5.95;;;26.30;91.20;;;;;;6253669;28;89371;-69
2023/07/11 04:33:17;;;;;;;6.65;5.97;;;26.20;91.10;;;;;;6252494;27;88516;-69
2023/07/11 04:36:19;;;;;;;9.18;6.38;;;26.20;91.20;;;;;;6252109;27;88347;-69
2023/07/11 04:39:23;;;;;;;7.80;6.40;;;26.20;92.00;;;;;;6246066;27;89063;-70
2023/07/11 04:42:25;;;;;;;9.10;6.55;;;26.30;93.80;;;;;;6234189;27;89169;-69
2023/07/11 04:45:27;;;;;;;8.80;6.43;;;26.30;93.60;;;;;;6236312;27;89016;-69
2023/07/11 04:48:29;;;;;;;8.48;5.88;;;26.20;93.50;;;;;;6249834;27;88160;-69
2023/07/11 04:51:31;;;;;;;7.13;6.43;;;26.30;93.20;;;;;;6249940;27;89222;-69
2023/07/11 04:54:35;;;;;;;7.18;6.32;;;26.20;92.90;;;;;;6256671;27;89058;-69
2023/07/11 04:57:37;;;;;;;7.63;6.03;;;26.30;93.00;;;;;;6251171;27;89469;-69
2023/07/11 05:00:39;;;;;;;8.73;6.22;;;26.20;93.40;;;;;;6256789;27;89417;-69
2023/07/11 05:03:44;;;;;;;9.68;6.00;;;26.20;93.60;;;;;;6251147;27;89068;-69
2023/07/11 05:06:47;;;;;;;7.38;6.05;;;26.20;93.50;;;;;;6258339;27;88425;-69
2023/07/11 05:09:50;;;;;;;7.45;5.97;;;26.20;93.60;;;;;;6248455;27;89445;-69
2023/07/11 05:12:52;;;;;;;8.27;6.20;;;26.20;93.60;;;;;;6247133;27;89446;-69
2023/07/11 05:15:59;;;;;;;7.00;5.68;;;26.20;93.60;;;;;;6247066;27;90003;-69
2023/07/11 05:19:01;;;;;;;6.78;6.07;;;26.20;93.50;;;;;;6239884;27;89094;-70
2023/07/11 05:22:04;;;;;;;6.57;5.97;;;26.20;93.70;;;;;;6258455;27;89141;-70
2023/07/11 05:25:08;;;;;;;6.45;5.72;;;26.20;93.50;;;;;;6251045;27;88019;-69
2023/07/11 05:28:10;;;;;;;7.60;6.32;;;26.30;93.10;;;;;;6258109;27;89038;-70
2023/07/11 05:31:13;;;;;;;7.78;5.93;;;26.20;92.80;;;;;;6251989;27;89132;-69
2023/07/11 05:34:15;;;;;;;6.53;5.70;;;26.30;92.80;;;;;;6254328;27;90482;-70
2023/07/11 05:37:17;;;;;;;7.25;5.80;;;26.20;92.60;;;;;;6245253;27;88423;-69
2023/07/11 05:40:20;;;;;;;6.55;5.60;;;26.20;92.90;;;;;;6258071;27;89103;-69
2023/07/11 05:43:22;;;;;;;7.07;6.38;;;26.20;93.00;;;;;;6236334;27;89276;-69
2023/07/11 05:46:25;;;;;;;8.07;5.85;;;26.30;93.00;;;;;;6240074;28;90403;-69
2023/07/11 05:49:27;;;;;;;6.45;5.80;;;26.20;92.70;;;;;;6244352;27;89004;-69
2023/07/11 05:52:29;;;;;;;6.70;6.07;;;26.30;92.60;;;;;;6245911;27;87937;-69
2023/07/11 05:55:32;;;;;;;8.02;6.03;;;26.30;92.60;;;;;;6251680;28;89028;-69
2023/07/11 05:58:35;;;;;;;7.18;6.15;;;26.20;92.60;;;;;;6245932;27;89343;-69
2023/07/11 06:01:37;;;;;;;8.70;6.40;;;26.20;92.50;;;;;;6255634;27;89051;-69
2023/07/11 06:04:39;;;;;;;8.52;6.45;;;26.30;92.50;;;;;;6248376;27;87750;-70
2023/07/11 06:07:41;;;;;;;7.13;6.53;;;26.30;92.60;;;;;;6253498;27;88295;-69
2023/07/11 06:10:45;;;;;;;6.97;6.20;;;26.30;92.60;;;;;;6253683;27;89068;-70
2023/07/11 06:13:47;;;;;;;7.22;6.53;;;26.30;92.60;;;;;;6249148;27;89366;-69
2023/07/11 06:16:49;;;;;;;7.93;6.80;;;26.30;92.70;;;;;;6249143;27;90019;-69
2023/07/11 06:19:50;;;;;;;7.68;6.57;;;26.30;92.70;;;;;;6255098;27;89121;-70
2023/07/11 06:22:52;;;;;;;8.25;7.10;;;26.30;92.70;;;;;;6255512;27;89116;-70
2023/07/11 06:25:56;;;;;;;7.93;7.13;;;26.30;92.80;;;;;;6248438;27;89092;-70
2023/07/11 06:28:58;;;;;;;8.20;7.28;;;26.30;92.80;;;;;;6239929;27;90444;-70
2023/07/11 06:32:00;;;;;;;7.63;6.90;;;26.30;92.80;;;;;;6255699;27;88413;-69
2023/07/11 06:35:02;;;;;;;7.47;6.82;;;26.30;92.90;;;;;;6258348;27;89173;-69
2023/07/11 06:38:04;;;;;;;8.25;7.03;;;26.30;93.00;;;;;;6255064;27;88748;-70
2023/07/11 06:41:07;;;;;;;7.80;6.97;;;26.30;93.10;;;;;;6250743;27;89192;-69
2023/07/11 06:44:09;;;;;;;7.53;6.85;;;26.30;93.00;;;;;;6238196;27;88222;-70
2023/07/11 06:47:11;;;;;;;8.00;7.20;;;26.30;93.10;;;;;;6254932;27;90308;-69
2023/07/11 06:50:13;;;;;;;7.85;7.15;;;26.30;93.10;;;;;;6254867;27;87977;-70
2023/07/11 06:53:15;;;;;;;8.10;7.30;;;26.30;93.10;;;;;;6254482;27;89027;-69
2023/07/11 06:56:18;;;;;;;8.40;7.60;;;26.30;93.10;;;;;;6257337;28;89060;-69
2023/07/11 06:59:20;;;;;;;9.77;7.72;;;26.40;93.30;;;;;;6233040;28;89088;-70
2023/07/11 07:02:22;;;;;;;9.25;8.00;;;26.40;93.40;;;;;;6245684;27;89092;-69
2023/07/11 07:05:24;;;;;;;8.52;7.82;;;26.40;93.40;;;;;;6252467;27;89045;-69
2023/07/11 07:08:27;;;;;;;8.05;7.25;;;26.30;93.50;;;;;;6250673;27;88671;-70
2023/07/11 07:11:30;;;;;;;8.75;7.85;;;26.30;93.50;;;;;;6251506;27;89142;-69
2023/07/11 07:14:32;;;;;;;9.07;8.00;;;26.40;93.60;;;;;;6246113;27;89468;-69
2023/07/11 07:17:34;;;;;;;9.05;8.05;;;26.40;93.70;;;;;;6255161;27;90062;-70
2023/07/11 07:20:36;;;;;;;8.90;8.05;;;26.40;93.70;;;;;;6253188;27;89164;-70
2023/07/11 07:23:38;;;;;;;8.52;7.72;;;26.40;93.80;;;;;;6257220;27;89486;-70
2023/07/11 07:26:42;;;;;;;8.70;7.90;;;26.40;93.90;;;;;;6242741;27;88990;-70
2023/07/11 07:29:44;;;;;;;8.93;8.10;;;26.40;93.90;;;;;;6241054;27;89554;-69
2023/07/11 07:32:48;;;;;;;8.40;7.70;;;26.40;94.00;;;;;;6248728;27;89039;-69
2023/07/11 07:35:51;;;;;;;8.10;7.40;;;26.40;94.10;;;;;;6253402;27;89021;-69
2023/07/11 07:38:53;;;;;;;8.35;7.40;;;26.40;94.10;;;;;;6246015;27;87466;-69
2023/07/11 07:41:56;;;;;;;10.23;8.55;;;26.40;94.20;;;;;;6253137;27;89205;-69
2023/07/11 07:44:58;;;;;;;9.65;8.55;;;26.50;94.30;;;;;;6248995;27;89082;-70
2023/07/11 07:48:00;;;;;;;9.13;8.32;;;26.40;94.40;;;;;;6253187;27;89088;-69
2023/07/11 07:51:06;;;;;;;9.18;8.27;;;26.50;94.40;;;;;;6253876;27;89155;-69
2023/07/11 07:54:08;;;;;;;8.75;7.90;;;26.40;94.40;;;;;;6246287;27;89146;-69
2023/07/11 07:57:11;;;;;;;8.95;8.00;;;26.50;94.40;;;;;;6250808;27;89098;-70
2023/07/11 08:00:14;;;;;;;9.15;7.95;;;26.40;94.40;;;;;;6249716;27;89182;-69
2023/07/11 08:03:16;;;;;;;9.15;7.88;;;26.50;94.40;;;;;;6247197;27;89350;-70
2023/07/11 08:06:19;;;;;;;9.15;8.30;;;26.40;94.40;;;;;;6255306;27;89251;-70
2023/07/11 08:09:21;;;;;;;8.63;7.82;;;26.40;94.30;;;;;;6240293;27;88325;-70
2023/07/11 08:12:25;;;;;;;9.20;8.00;;;26.40;94.10;;;;;;6240107;27;89327;-70
2023/07/11 08:15:30;;;;;;;8.82;7.70;;;26.40;93.90;;;;;;6252611;27;88932;-69
2023/07/11 08:18:32;;;;;;;8.15;7.45;;;26.40;93.80;;;;;;6251662;27;92166;-70
2023/07/11 08:21:35;;;;;;;8.50;7.70;;;26.40;93.70;;;;;;6255892;28;90729;-70
2023/07/11 08:24:37;;;;;;;8.07;7.30;;;26.40;93.70;;;;;;6252625;27;89603;-69
2023/07/11 08:27:41;;;;;;;8.40;7.70;;;26.50;93.70;;;;;;6252261;27;89193;-70
2023/07/11 08:30:43;;;;;;;8.55;7.30;;;26.40;93.60;;;;;;6247084;27;89175;-69
2023/07/11 08:33:45;;;;;;;8.20;7.30;;;26.50;93.60;;;;;;6248974;27;88127;-70
2023/07/11 08:36:47;;;;;;;8.50;7.70;;;26.50;93.40;;;;;;6248851;27;89174;-70
2023/07/11 08:39:49;;;;;;;8.43;7.63;;;26.50;93.20;;;;;;6248900;27;88681;-69
2023/07/11 08:42:52;;;;;;;8.73;7.88;;;26.50;93.00;;;;;;6247738;27;89235;-69
2023/07/11 08:46:00;;;;;;;8.43;7.63;;;26.50;92.70;;;;;;6253122;27;89061;-69
2023/07/11 08:49:04;;;;;;;8.10;7.30;;;26.50;92.30;;;;;;6247232;27;88861;-69
2023/07/11 08:52:10;;;;;;;8.38;7.57;;;26.50;91.90;;;;;;6245461;27;90176;-69
2023/07/11 08:55:17;;;;;;;8.95;8.02;;;26.60;91.80;;;;;;6263008;27;89161;-69
2023/07/11 08:58:25;;;;;;;9.15;8.18;;;26.60;91.70;;;;;;6258439;27;88976;-69
2023/07/11 09:01:37;;;;;;;8.55;7.75;;;26.60;91.70;;;;;;6260959;27;89292;-69
2023/07/11 09:04:45;;;;;;;7.85;7.05;;;26.60;91.80;;;;;;6254073;27;89182;-69
2023/07/11 09:07:48;;;;;;;7.93;7.13;;;26.50;91.80;;;;;;6260981;27;89066;-69
2023/07/11 09:10:58;;;;;;;7.97;7.20;;;26.50;91.90;;;;;;6256658;27;88319;-69
2023/07/11 09:14:11;;;;;;;7.72;7.03;;;26.50;91.90;;;;;;6252623;27;89116;-69
2023/07/11 09:17:21;;;;;;;7.53;6.78;;;26.50;92.00;;;;;;6251817;27;89127;-69
2023/07/11 09:20:32;;;;;;;8.23;7.43;;;26.50;92.10;;;;;;6254125;27;90038;-69
2023/07/11 09:23:44;;;;;;;7.75;7.05;;;26.50;92.10;;;;;;6257226;27;89372;-69
2023/07/11 09:26:48;;;;;;;7.78;6.85;;;26.50;92.20;;;;;;6246445;27;89276;-69
2023/07/11 09:29:52;;;;;;;7.90;7.20;;;26.50;92.30;;;;;;6262184;27;89005;-69
2023/07/11 09:33:02;;;;;;;7.53;6.93;;;26.50;92.30;;;;;;6262922;27;87997;-69
2023/07/11 09:36:21;;;;;;;7.75;7.00;;;26.50;92.40;;;;;;6262478;27;89192;-69
2023/07/11 09:39:30;;;;;;;7.57;6.80;;;26.50;92.40;;;;;;6260114;27;89048;-69
2023/07/11 09:42:43;;;;;;;7.57;6.88;;;26.50;92.50;;;;;;6266336;27;87219;-69
2023/07/11 09:45:47;;;;;;;7.65;6.88;;;26.50;92.50;;;;;;6251796;27;89153;-69
2023/07/11 09:48:53;;;;;;;7.70;7.00;;;26.50;92.50;;;;;;6259912;27;89545;-69
2023/07/11 09:51:58;;;;;;;7.43;6.72;;;26.50;92.60;;;;;;6247308;27;90065;-69
2023/07/11 09:55:01;;;;;;;7.50;6.80;;;26.50;92.60;;;;;;6241008;27;89092;-69
2023/07/11 09:58:03;;;;;;;7.57;6.88;;;26.50;92.60;;;;;;6254063;27;88087;-69
2023/07/11 10:01:17;;;;;;;7.45;6.80;;;26.50;92.70;;;;;;6243195;28;89060;-69
2023/07/11 10:04:24;;;;;;;7.43;6.72;;;26.50;92.80;;;;;;6246306;27;89126;-69
2023/07/11 10:07:30;;;;;;;7.38;6.68;;;26.50;92.80;;;;;;6257122;27;88265;-68
2023/07/11 10:10:32;;;;;;;7.22;6.38;;;26.50;92.80;;;;;;6250568;27;87899;-68
2023/07/11 10:13:34;;;;;;;7.00;6.40;;;26.60;92.80;;;;;;6255708;27;88645;-68
2023/07/11 10:16:37;;;;;;;6.75;6.15;;;26.60;92.90;;;;;;6255662;27;89119;-68
2023/07/11 10:19:39;;;;;;;6.85;6.25;;;26.60;93.00;;;;;;6254499;27;89500;-68
2023/07/11 10:22:43;;;;;;;7.35;6.65;;;26.50;93.00;;;;;;6252347;27;89959;-68
2023/07/11 10:25:45;;;;;;;7.00;6.40;;;26.60;93.10;;;;;;6254562;27;89266;-68
2023/07/11 10:28:55;;;;;;;7.22;6.53;;;26.60;93.10;;;;;;6243645;27;88252;-68
2023/07/11 10:32:02;;;;;;;8.20;6.88;;;26.60;93.10;;;;;;6256261;27;89193;-68
2023/07/11 10:35:09;;;;;;;6.70;6.10;;;26.50;93.10;;;;;;6246153;27;89098;-68
2023/07/11 10:38:18;;;;;;;6.90;6.30;;;26.60;93.20;;;;;;6248698;27;89158;-69
2023/07/11 10:41:26;;;;;;;6.93;6.32;;;26.60;93.20;;;;;;6252986;27;89470;-69
2023/07/11 10:44:34;;;;;;;7.32;6.60;;;26.50;93.10;;;;;;6248443;27;88255;-69
2023/07/11 10:47:42;;;;;;;7.07;6.47;;;26.60;93.20;;;;;;6252417;27;89073;-69
2023/07/11 10:50:47;;;;;;;6.68;6.07;;;26.60;93.60;;;;;;6249713;27;87590;-69
2023/07/11 10:54:03;;;;;;;6.78;6.28;;;26.50;93.20;;;;;;6245972;27;89925;-68
2023/07/11 10:57:12;;;;;;;7.68;6.50;;;26.60;93.20;;;;;;6241623;27;89219;-68
2023/07/11 11:00:17;;;;;;;6.95;6.25;;;26.60;93.10;;;;;;6246860;27;89076;-70
2023/07/11 11:03:35;;;;;;;6.88;6.28;;;26.60;93.80;;;;;;6245280;28;87907;-70
2023/07/11 11:06:51;;;;;;;7.05;6.38;;;26.60;93.60;;;;;;6249065;27;89339;-70
2023/07/11 11:10:04;;;;;;;7.50;6.47;;;26.60;93.70;;;;;;6244619;27;89203;-70
2023/07/11 11:13:19;;;;;;;7.35;6.50;;;26.60;93.70;;;;;;6249351;27;88033;-70
2023/07/11 11:16:29;;;;;;;7.38;6.32;;;26.60;93.70;;;;;;6256858;27;88308;-70
2023/07/11 11:19:44;;;;;;;9.45;6.95;;;26.60;93.70;;;;;;6252675;27;89069;-70
2023/07/11 11:23:05;;;;;;;12.02;8.40;;;26.60;94.30;;;;;;6246365;27;87607;-70
2023/07/11 11:26:20;;;;;;;18.05;10.38;;;26.60;95.40;;;;;;6244886;27;89990;-71
2023/07/11 11:29:32;;;;;;;19.05;11.77;;;26.60;96.00;;;;;;6253344;27;88999;-70
2023/07/11 11:32:43;;;;;;;23.52;12.70;;;26.60;95.90;;;;;;6254288;27;89362;-72
2023/07/11 11:36:03;;;;;;;26.05;12.23;;;26.60;95.40;;;;;;6241286;27;89407;-70
2023/07/11 11:39:23;;;;;;;27.83;14.80;;;26.70;95.00;;;;;;6251204;28;89145;-70
2023/07/11 11:42:30;;;;;;;22.30;12.55;;;26.60;95.10;;;;;;6244391;27;89118;-69
2023/07/11 11:45:33;;;;;;;24.10;12.75;;;26.60;94.70;;;;;;6248568;27;89109;-72
2023/07/11 11:48:37;;;;;;;22.83;12.02;;;26.70;94.80;;;;;;6254244;27;88076;-71
2023/07/11 11:51:44;;;;;;;29.63;14.40;;;26.60;95.10;;;;;;6245726;27;87957;-70
2023/07/11 11:54:48;;;;;;;35.00;16.17;;;26.60;95.80;;;;;;6242080;27;89226;-71
2023/07/11 11:57:50;;;;;;;29.33;14.27;;;26.70;96.60;;;;;;6256129;27;90331;-70
2023/07/11 12:00:55;;;;;;;28.60;13.20;;;26.70;96.90;;;;;;6245971;27;89053;-70
2023/07/11 12:03:57;;;;;;;25.55;14.25;;;26.70;96.90;;;;;;6244978;27;89157;-70
2023/07/11 12:07:19;;;;;;;22.60;13.20;;;26.70;99.10;;;;;;6253516;27;88955;-70
2023/07/11 12:10:25;;;;;;;21.63;12.57;;;26.70;97.50;;;;;;6247020;27;87964;-70
2023/07/11 12:13:31;;;;;;;20.17;11.55;;;26.80;97.00;;;;;;6258382;27;89248;-70
2023/07/11 12:16:33;;;;;;;21.83;11.43;;;26.80;96.70;;;;;;6244138;27;90077;-70
2023/07/11 12:19:41;;;;;;;20.83;11.65;;;26.80;96.60;;;;;;6244096;27;88363;-70
2023/07/11 12:23:17;;;;;;;17.70;11.52;;;26.80;96.50;;;;;;6247074;27;89282;-70
2023/07/11 12:26:22;;;;;;;18.13;10.68;;;26.80;96.20;;;;;;6240342;27;88955;-70
2023/07/11 12:29:39;;;;;;;18.63;11.00;;;26.80;95.90;;;;;;6235461;27;88851;-69
2023/07/11 12:32:47;;;;;;;18.55;10.88;;;26.80;95.80;;;;;;6245127;27;88810;-70
2023/07/11 12:36:11;;;;;;;17.65;10.73;;;26.80;95.80;;;;;;6236013;27;89159;-70
2023/07/11 12:39:45;;;;;;;17.35;10.38;;;26.80;95.50;;;;;;6243747;27;89137;-69
2023/07/11 12:42:51;;;;;;;13.93;10.57;;;26.80;95.40;;;;;;6235195;27;89031;-70
2023/07/11 12:45:56;;;;;;;16.67;9.93;;;26.80;95.30;;;;;;6241529;27;88521;-70
2023/07/11 12:48:58;;;;;;;14.65;9.90;;;26.90;95.20;;;;;;6239423;27;89161;-70
2023/07/11 12:52:06;;;;;;;15.38;9.77;;;26.80;95.10;;;;;;6248536;27;88321;-70
2023/07/11 12:55:12;;;;;;;14.82;10.02;;;26.90;95.00;;;;;;6239309;27;89062;-70
2023/07/11 12:58:18;;;;;;;13.95;9.63;;;26.90;94.90;;;;;;6245923;27;87984;-70
2023/07/11 13:01:20;;;;;;;13.90;9.82;;;26.90;94.80;;;;;;6238644;27;89917;-70
2023/07/11 13:04:30;;;;;;;12.85;9.52;;;26.90;94.80;;;;;;6246969;27;88958;-70
2023/07/11 13:07:32;;;;;;;14.00;9.60;;;26.90;94.80;;;;;;6244201;27;89081;-70
2023/07/11 13:10:36;;;;;;;14.05;9.43;;;26.90;94.80;;;;;;6244421;27;89069;-70
2023/07/11 13:13:40;;;;;;;13.93;9.60;;;26.90;94.80;;;;;;6240632;27;89461;-70
2023/07/11 13:16:44;;;;;;;12.90;9.50;;;26.90;94.90;;;;;;6253156;27;89357;-70
2023/07/11 13:19:47;;;;;;;12.43;9.25;;;26.90;94.90;;;;;;6252042;27;89104;-70
2023/07/11 13:22:50;;;;;;;14.38;9.68;;;26.90;95.00;;;;;;6249380;27;88378;-70
2023/07/11 13:25:54;;;;;;;11.68;8.25;;;26.90;95.00;;;;;;6249463;27;89098;-70
2023/07/11 13:29:05;;;;;;;10.73;8.73;;;26.90;95.10;;;;;;6258020;27;88755;-70
2023/07/11 13:32:15;;;;;;;12.55;9.15;;;26.90;95.10;;;;;;6250209;27;89999;-69
2023/07/11 13:35:17;;;;;;;12.50;8.80;;;26.90;99.60;;;;;;6242270;27;89081;-69
2023/07/11 13:38:19;;;;;;;14.02;9.38;;;26.90;98.70;;;;;;6256066;27;89397;-68
2023/07/11 13:41:27;;;;;;;14.18;9.80;;;27.00;98.50;;;;;;6252735;27;89026;-68
2023/07/11 13:44:32;;;;;;;11.90;8.65;;;27.00;98.30;;;;;;6252011;27;89051;-68
2023/07/11 13:47:40;;;;;;;11.70;8.88;;;27.10;98.10;;;;;;6256695;27;89124;-68
2023/07/11 13:50:43;;;;;;;14.60;9.50;;;27.10;97.90;;;;;;6242673;27;88123;-69
2023/07/11 13:53:50;;;;;;;16.25;9.77;;;27.10;97.70;;;;;;6256407;27;88307;-68
2023/07/11 13:56:54;;;;;;;13.73;9.30;;;27.10;97.50;;;;;;6253520;27;89186;-70
2023/07/11 13:59:55;;;;;;;22.67;11.32;;;27.10;97.10;;;;;;6252384;27;89056;-69
2023/07/11 14:02:59;;;;;;;22.83;12.25;;;27.10;97.00;;;;;;6246796;27;89960;-68
2023/07/11 14:06:01;;;;;;;19.35;11.85;;;27.10;97.00;;;;;;6251702;27;89056;-69
2023/07/11 14:09:03;;;;;;;20.73;11.23;;;27.10;97.00;;;;;;6249365;27;89174;-68
2023/07/11 14:12:11;;;;;;;18.73;11.40;;;27.10;96.80;;;;;;6253486;27;89512;-68
2023/07/11 14:15:17;;;;;;;19.58;12.07;;;27.10;96.80;;;;;;6240823;27;89001;-68
2023/07/11 14:18:19;;;;;;;20.48;11.32;;;27.10;96.60;;;;;;6240013;27;89446;-69
2023/07/11 14:21:21;;;;;;;16.27;10.95;;;27.00;96.60;;;;;;6242340;27;89094;-70
2023/07/11 14:24:23;;;;;;;16.65;11.35;;;27.00;97.00;;;;;;6239775;27;88667;-68
2023/07/11 14:27:26;;;;;;;16.70;11.07;;;27.10;96.60;;;;;;6246682;27;89107;-69
2023/07/11 14:30:29;;;;;;;18.40;11.05;;;27.10;96.60;;;;;;6235842;27;89187;-68
2023/07/11 14:33:34;;;;;;;17.45;10.93;;;27.10;96.40;;;;;;6245355;27;90273;-70
2023/07/11 14:36:36;;;;;;;15.15;10.85;;;27.10;96.30;;;;;;6243662;27;89287;-69
2023/07/11 14:39:38;;;;;;;15.65;10.52;;;27.10;96.30;;;;;;6244208;27;89655;-68
2023/07/11 14:42:41;;;;;;;16.80;10.63;;;27.10;96.40;;;;;;6244537;27;89052;-69
2023/07/11 14:45:43;;;;;;;18.77;11.25;;;27.10;96.40;;;;;;6245988;27;89022;-68
2023/07/11 14:48:45;;;;;;;13.30;10.77;;;27.10;96.50;;;;;;6244238;27;89043;-68
2023/07/11 14:51:48;;;;;;;16.75;10.70;;;27.10;96.30;;;;;;6238939;27;89415;-68
2023/07/11 14:54:50;;;;;;;16.42;11.18;;;27.10;96.30;;;;;;6256715;27;88413;-68
2023/07/11 14:57:55;;;;;;;14.93;10.25;;;27.10;96.30;;;;;;6260298;27;87588;-69
2023/07/11 15:00:58;;;;;;;15.45;10.70;;;27.10;96.40;;;;;;6268327;27;87942;-68
2023/07/11 15:04:00;;;;;;;15.75;10.55;;;27.10;96.50;;;;;;6249519;27;90234;-69
2023/07/11 15:07:02;;;;;;;15.13;10.02;;;27.20;96.40;;;;;;6269350;27;89052;-69
2023/07/11 15:10:07;;;;;;;15.73;10.52;;;27.20;97.30;;;;;;6252623;27;89146;-69
2023/07/11 15:13:11;;;;;;;15.15;10.32;;;27.10;97.50;;;;;;6266207;27;89097;-69
2023/07/11 15:16:13;;;;;;;16.13;10.68;;;27.20;97.50;;;;;;6245923;27;89140;-69
2023/07/11 15:19:18;;;;;;;14.73;10.35;;;27.20;97.90;;;;;;6251941;27;89094;-69
2023/07/11 15:22:22;;;;;;;13.05;10.57;;;27.20;97.70;;;;;;6252539;27;89046;-70
2023/07/11 15:25:29;;;;;;;14.27;10.15;;;27.20;97.50;;;;;;6261332;27;88601;-69
2023/07/11 15:28:33;;;;;;;16.23;10.70;;;27.10;97.40;;;;;;6257296;27;89158;-69
2023/07/11 15:31:35;;;;;;;14.43;9.95;;;27.10;97.30;;;;;;6265939;27;89394;-69
2023/07/11 15:34:37;;;;;;;14.90;10.48;;;27.10;97.40;;;;;;6264843;27;90087;-69
2023/07/11 15:37:39;;;;;;;13.27;9.85;;;27.10;97.20;;;;;;6265839;27;89095;-69
2023/07/11 15:40:41;;;;;;;13.55;9.60;;;27.10;97.30;;;;;;6265026;27;87934;-69
2023/07/11 15:43:44;;;;;;;14.02;10.20;;;27.10;97.40;;;;;;6265138;27;89042;-69
2023/07/11 15:46:46;;;;;;;15.82;10.50;;;27.20;97.50;;;;;;6264670;27;89114;-69
2023/07/11 15:49:49;;;;;;;17.63;10.25;;;27.10;97.60;;;;;;6252723;27;89119;-69
2023/07/11 15:52:52;;;;;;;14.02;9.77;;;27.10;97.40;;;;;;6253494;27;89399;-69
2023/07/11 15:55:54;;;;;;;14.82;10.10;;;27.10;97.40;;;;;;6246385;27;87203;-69